Airfield :
LOGIN :

Register | Disclaimer

   EN    FR    IT 

 










Legend :    VFR   Marginal VFR   IFR   Intensive IFR   Very Intensive IFR
Visi :
Ceiling :
>= 8 km
>= 3000ft
5 to 8 km
1000 to 3000 ft
1500m to 5 km
500 to 1000 ft
800 to 1500m
200 to 500 ft
< 800m
< 200 ft
Symbols :   Thunderstorms  Fog  Heavy snow  Heavy precipitations  Wind > 20 kt
SIGMETs :     Misc.  Thunderstorms  Icing  Turbulence  Mountain Waves  Volcanic Ashes







- Airport Elevation : 80 ft
- IATA code : LPL
- Download approach charts


EGGP - Liverpool John Lennon

CURRENT METAR :
  • 240520Z 25012KT 9999 FEW040 05/03 Q1007

EXPIRED METARs :
  • 240450Z 25014KT 9999 FEW034 06/02 Q1007
  • 240420Z 24013KT 9999 FEW034 06/03 Q1006
  • 240350Z AUTO 25012KT 9999 FEW032/// SCT038/// 05/03 Q1006
  • 240320Z 25012KT 9999 FEW019 SCT043 06/03 Q1006
  • 240250Z 26012KT 9999 -RA FEW019 SCT033 06/04 Q1006

TAF TAF EGGP
Valid from the 24 at 06:00 until the 25 at 06:00 UTC


240457Z 2406/2506 24009KT 9999 FEW020 SCT045
PROB40
TEMPO 2406/2419 6000 SHRA
TEMPO 2419/2506 7000 SHRA BKN010CB
PROB30
TEMPO 2423/2506 2000 SHRASN BKN004
BECMG 2503/2506 32010KT
PROB30
TEMPO 2503/2506 32015G25KT
ATIS : +44 151 907 2000 (option 5 or ext 5150)
Met : +44 871 750 5150
No reported NOTAMs for that airfield.



MET'MAP, your aeronautical weather chart ! - Copyright ORBIFLY December 2007 - Disclaimer

ORBIFLY MET'MAP TEAM :

Programming & Development : Alexandra Zaïnal
Concept & Development : Baudouin d'Aumeries
Co-Development & Prog : Marc-Olivier Méhu
Technical & hardware support : Manuel Goepfert

Contact : metmap@orbifly.com




SOURCES & CREDITS :

   NOAA